Time;durP1;ratioP1;P1;durP2;ratioP2;P2;SDS_P1;SDS_P2;PMS_P1;PMS_P2;Temp;Humidity;BMP_temperature;BMP_pressure;BME280_temperature;BME280_humidity;BME280_pressure;Samples;Min_cycle;Max_cycle;Signal;HPM_P1;HPM_P2
2022/03/24 00:00:30;;;;;;;33.60;14.70;;;;;;;;;;6220951;28;20060;-70
2022/03/24 00:03:32;;;;;;;35.08;14.45;;;;;;;;;;6223014;28;20488;-70
2022/03/24 00:06:35;;;;;;;25.15;12.90;;;;;;;;;;6222503;28;20528;-70
2022/03/24 00:09:36;;;;;;;34.15;14.25;;;;;;;;;;6221403;28;20663;-70
2022/03/24 00:12:39;;;;;;;26.65;14.05;;;;;;;;;;6222332;28;20041;-70
2022/03/24 00:15:40;;;;;;;27.33;13.18;;;;;;;;;;6221542;28;20052;-67
2022/03/24 00:18:42;;;;;;;25.65;13.10;;;;;;;;;;6222296;28;20184;-70
2022/03/24 00:21:45;;;;;;;29.65;14.13;;;;;;;;;;6220325;28;20054;-70
2022/03/24 00:24:46;;;;;;;26.20;13.93;;;;;;;;;;6221139;28;20124;-70
2022/03/24 00:27:48;;;;;;;27.60;14.65;;;;;;;;;;6217852;28;20132;-70
2022/03/24 00:30:49;;;;;;;27.83;14.27;;;;;;;;;;6220851;28;20057;-70
2022/03/24 00:33:51;;;;;;;27.67;14.45;;;;;;;;;;6217539;28;20559;-69
2022/03/24 00:36:54;;;;;;;33.00;14.45;;;;;;;;;;6220520;28;20080;-70
2022/03/24 00:39:56;;;;;;;27.05;15.13;;;;;;;;;;6220809;28;20181;-69
2022/03/24 00:42:59;;;;;;;29.98;14.32;;;;;;;;;;6220290;28;20081;-69
2022/03/24 00:46:00;;;;;;;25.20;13.68;;;;;;;;;;6220800;28;20094;-69
2022/03/24 00:49:02;;;;;;;32.22;15.15;;;;;;;;;;6222207;28;20612;-71
2022/03/24 00:52:06;;;;;;;26.00;14.45;;;;;;;;;;6220211;28;20132;-70
2022/03/24 00:55:10;;;;;;;26.85;15.05;;;;;;;;;;6220014;28;20084;-70
2022/03/24 00:58:13;;;;;;;27.20;15.00;;;;;;;;;;6221067;28;20050;-70
2022/03/24 01:01:15;;;;;;;25.02;15.00;;;;;;;;;;6222683;28;20057;-70
2022/03/24 01:04:17;;;;;;;27.67;15.18;;;;;;;;;;6221060;28;20053;-70
2022/03/24 01:07:20;;;;;;;28.35;15.10;;;;;;;;;;6221438;28;20164;-69
2022/03/24 01:10:22;;;;;;;27.50;14.77;;;;;;;;;;6222259;28;20181;-69
2022/03/24 01:13:24;;;;;;;28.75;16.35;;;;;;;;;;6220806;28;20132;-70
2022/03/24 01:16:25;;;;;;;25.38;15.88;;;;;;;;;;6220985;28;20136;-69
2022/03/24 01:19:27;;;;;;;26.55;15.27;;;;;;;;;;6220393;28;20520;-69
2022/03/24 01:22:30;;;;;;;28.17;15.93;;;;;;;;;;6219711;28;20054;-68
2022/03/24 01:25:32;;;;;;;30.08;15.85;;;;;;;;;;6220037;28;20068;-69
2022/03/24 01:28:35;;;;;;;28.30;16.08;;;;;;;;;;6220308;28;20517;-68
2022/03/24 01:31:42;;;;;;;25.50;15.48;;;;;;;;;;6221151;28;20053;-69
2022/03/24 01:34:45;;;;;;;29.13;15.88;;;;;;;;;;6220715;28;20555;-69
2022/03/24 01:37:48;;;;;;;39.00;17.20;;;;;;;;;;6219857;28;20180;-69
2022/03/24 01:40:50;;;;;;;31.87;14.90;;;;;;;;;;6220100;28;20573;-70
2022/03/24 01:43:51;;;;;;;28.58;15.48;;;;;;;;;;6220384;28;20191;-69
2022/03/24 01:46:58;;;;;;;38.67;16.23;;;;;;;;;;6221369;28;20213;-70
2022/03/24 01:50:00;;;;;;;30.05;16.08;;;;;;;;;;6224069;28;20163;-68
2022/03/24 01:53:04;;;;;;;30.00;15.70;;;;;;;;;;6225169;28;20666;-69
2022/03/24 01:56:07;;;;;;;26.33;14.82;;;;;;;;;;6224837;28;20054;-69
2022/03/24 01:59:08;;;;;;;31.98;15.77;;;;;;;;;;6225892;28;20763;-69
2022/03/24 02:02:11;;;;;;;35.67;15.80;;;;;;;;;;6224962;28;20133;-69
2022/03/24 02:05:14;;;;;;;31.38;16.00;;;;;;;;;;6223636;28;20557;-69
2022/03/24 02:08:17;;;;;;;29.95;15.35;;;;;;;;;;6224844;28;20050;-69
2022/03/24 02:11:19;;;;;;;30.02;15.80;;;;;;;;;;6226299;28;20087;-69
2022/03/24 02:14:21;;;;;;;29.95;16.75;;;;;;;;;;6224334;28;20133;-69
2022/03/24 02:17:27;;;;;;;28.27;16.80;;;;;;;;;;6224184;28;20045;-68
2022/03/24 02:20:33;;;;;;;28.67;16.33;;;;;;;;;;6221756;28;20275;-69
2022/03/24 02:23:36;;;;;;;28.42;16.67;;;;;;;;;;6223431;28;20125;-69
2022/03/24 02:26:40;;;;;;;31.60;16.48;;;;;;;;;;6223547;28;20129;-69
2022/03/24 02:29:42;;;;;;;31.15;17.42;;;;;;;;;;6217847;28;20049;-69
2022/03/24 02:32:44;;;;;;;28.10;16.73;;;;;;;;;;6213927;28;20053;-69
2022/03/24 02:35:46;;;;;;;27.95;14.70;;;;;;;;;;6222268;28;20473;-69
2022/03/24 02:38:49;;;;;;;28.35;15.27;;;;;;;;;;6217779;28;20046;-69
2022/03/24 02:41:52;;;;;;;26.10;15.65;;;;;;;;;;6218976;28;20544;-68
2022/03/24 02:44:55;;;;;;;27.80;16.37;;;;;;;;;;6221323;28;20050;-69
2022/03/24 02:47:57;;;;;;;26.92;15.18;;;;;;;;;;6222949;28;20045;-69
2022/03/24 02:51:01;;;;;;;29.42;15.02;;;;;;;;;;6220333;28;20081;-69
2022/03/24 02:54:04;;;;;;;30.00;15.45;;;;;;;;;;6221448;28;20046;-69
2022/03/24 02:57:07;;;;;;;30.55;15.38;;;;;;;;;;6222845;28;20524;-67
2022/03/24 03:00:09;;;;;;;27.65;15.70;;;;;;;;;;6220262;28;20518;-69
2022/03/24 03:03:12;;;;;;;26.63;15.27;;;;;;;;;;6224172;28;20431;-67
2022/03/24 03:06:13;;;;;;;27.73;14.85;;;;;;;;;;6223481;28;20041;-68
2022/03/24 03:09:17;;;;;;;27.88;15.35;;;;;;;;;;6223916;28;20046;-67
2022/03/24 03:12:18;;;;;;;24.52;14.35;;;;;;;;;;6223976;28;20050;-67
2022/03/24 03:15:20;;;;;;;30.33;15.30;;;;;;;;;;6224144;28;20477;-67
2022/03/24 03:18:21;;;;;;;27.73;15.43;;;;;;;;;;6222711;28;20170;-67
2022/03/24 03:21:24;;;;;;;30.50;14.90;;;;;;;;;;6219344;28;20124;-67
2022/03/24 03:24:27;;;;;;;28.45;15.00;;;;;;;;;;6221752;28;20068;-67
2022/03/24 03:27:31;;;;;;;31.35;15.80;;;;;;;;;;6223156;28;20038;-67
2022/03/24 03:30:34;;;;;;;;;;;;;;;;;;6222071;28;20050;-67
2022/03/24 03:33:36;;;;;;;31.13;15.35;;;;;;;;;;6222266;28;19991;-69
2022/03/24 03:36:38;;;;;;;28.52;15.63;;;;;;;;;;6221415;28;20418;-68
2022/03/24 03:39:41;;;;;;;28.25;15.55;;;;;;;;;;6221524;28;20511;-68
2022/03/24 03:42:43;;;;;;;30.33;16.33;;;;;;;;;;6221332;28;20129;-67
2022/03/24 03:45:45;;;;;;;29.65;15.75;;;;;;;;;;6222387;28;20133;-67
2022/03/24 03:48:47;;;;;;;32.83;17.10;;;;;;;;;;6223491;28;20105;-67
2022/03/24 03:51:49;;;;;;;27.00;16.02;;;;;;;;;;6223152;28;20046;-67
2022/03/24 03:54:52;;;;;;;29.35;16.45;;;;;;;;;;6221656;28;20132;-67
2022/03/24 03:57:53;;;;;;;33.47;17.05;;;;;;;;;;6220956;28;20125;-67
2022/03/24 04:00:55;;;;;;;27.17;16.05;;;;;;;;;;6221152;28;20050;-68
2022/03/24 04:03:57;;;;;;;29.80;16.30;;;;;;;;;;6219667;28;20065;-68
2022/03/24 04:06:59;;;;;;;34.00;17.30;;;;;;;;;;6221493;28;20046;-67
2022/03/24 04:10:02;;;;;;;27.02;17.10;;;;;;;;;;6220424;28;20046;-67
2022/03/24 04:13:04;;;;;;;35.15;16.90;;;;;;;;;;6220699;28;20176;-68
2022/03/24 04:16:06;;;;;;;35.00;17.13;;;;;;;;;;6220656;28;20053;-67
2022/03/24 04:19:07;;;;;;;31.23;17.38;;;;;;;;;;6221205;28;21123;-68
2022/03/24 04:22:09;;;;;;;30.67;16.38;;;;;;;;;;6222100;28;20045;-67
2022/03/24 04:25:12;;;;;;;32.53;15.85;;;;;;;;;;6220823;28;20057;-68
2022/03/24 04:28:14;;;;;;;34.38;16.85;;;;;;;;;;6219790;28;20100;-68
2022/03/24 04:31:16;;;;;;;30.00;16.52;;;;;;;;;;6217646;28;20397;-68
2022/03/24 04:34:18;;;;;;;26.77;15.70;;;;;;;;;;6220609;28;20058;-68
2022/03/24 04:37:19;;;;;;;32.97;16.45;;;;;;;;;;6221032;28;20081;-68
2022/03/24 04:40:23;;;;;;;31.83;15.63;;;;;;;;;;6220227;28;20529;-68
2022/03/24 04:43:25;;;;;;;34.15;15.48;;;;;;;;;;6220705;28;20045;-68
2022/03/24 04:46:26;;;;;;;32.47;17.40;;;;;;;;;;6219635;28;20137;-68
2022/03/24 04:49:28;;;;;;;30.92;16.70;;;;;;;;;;6220720;28;20133;-68
2022/03/24 04:52:30;;;;;;;30.23;16.33;;;;;;;;;;6220114;28;20050;-68
2022/03/24 04:55:33;;;;;;;39.20;18.17;;;;;;;;;;6220573;28;20152;-68
2022/03/24 04:58:34;;;;;;;34.65;16.95;;;;;;;;;;6217396;28;20058;-68
2022/03/24 05:01:36;;;;;;;34.05;16.85;;;;;;;;;;6221169;28;20042;-68
2022/03/24 05:04:38;;;;;;;27.60;16.13;;;;;;;;;;6220801;28;20133;-69
2022/03/24 05:07:40;;;;;;;31.42;17.75;;;;;;;;;;6219793;28;20480;-68
2022/03/24 05:10:43;;;;;;;28.30;16.27;;;;;;;;;;6220224;28;20058;-68
2022/03/24 05:13:45;;;;;;;34.63;17.65;;;;;;;;;;6219488;28;20703;-67
2022/03/24 05:16:46;;;;;;;29.15;15.50;;;;;;;;;;6221942;28;20065;-68
2022/03/24 05:19:48;;;;;;;31.10;17.17;;;;;;;;;;6220055;28;20057;-69
2022/03/24 05:22:50;;;;;;;29.58;16.15;;;;;;;;;;6221811;28;20077;-68
2022/03/24 05:25:53;;;;;;;31.80;16.63;;;;;;;;;;6221707;28;20053;-68
2022/03/24 05:28:55;;;;;;;28.15;16.15;;;;;;;;;;6220843;28;20116;-68
2022/03/24 05:31:56;;;;;;;30.48;15.70;;;;;;;;;;6217994;28;20135;-68
2022/03/24 05:34:58;;;;;;;34.85;16.55;;;;;;;;;;6219419;28;20046;-68
2022/03/24 05:37:59;;;;;;;31.50;17.42;;;;;;;;;;6220655;28;20505;-68
2022/03/24 05:41:02;;;;;;;32.15;17.35;;;;;;;;;;6221180;28;20188;-69
2022/03/24 05:44:05;;;;;;;36.78;17.10;;;;;;;;;;6219916;28;20184;-68
2022/03/24 05:47:08;;;;;;;30.95;16.52;;;;;;;;;;6222044;28;20050;-68
2022/03/24 05:50:09;;;;;;;32.97;17.75;;;;;;;;;;6220926;28;20058;-68
2022/03/24 05:53:11;;;;;;;33.97;17.67;;;;;;;;;;6219872;28;20042;-69
2022/03/24 05:56:14;;;;;;;31.45;17.40;;;;;;;;;;6220271;28;20137;-69
2022/03/24 05:59:16;;;;;;;35.10;17.23;;;;;;;;;;6220745;28;20427;-69
2022/03/24 06:02:20;;;;;;;30.55;16.77;;;;;;;;;;6220104;28;20510;-69
2022/03/24 06:05:22;;;;;;;32.80;17.10;;;;;;;;;;6221734;28;20260;-69
2022/03/24 06:08:24;;;;;;;33.03;18.33;;;;;;;;;;6221818;28;20140;-69
2022/03/24 06:11:27;;;;;;;32.10;17.85;;;;;;;;;;6220898;28;20125;-69
2022/03/24 06:14:29;;;;;;;31.08;17.92;;;;;;;;;;6217330;28;20132;-68
2022/03/24 06:17:30;;;;;;;32.72;18.27;;;;;;;;;;6220470;28;20129;-69
2022/03/24 06:20:32;;;;;;;31.77;17.85;;;;;;;;;;6219533;28;20053;-69
2022/03/24 06:23:34;;;;;;;32.55;17.83;;;;;;;;;;6219645;28;20128;-69
2022/03/24 06:26:38;;;;;;;33.38;18.13;;;;;;;;;;6219145;28;20054;-68
2022/03/24 06:29:40;;;;;;;32.33;17.90;;;;;;;;;;6218223;28;20057;-66
2022/03/24 06:32:41;;;;;;;35.28;18.27;;;;;;;;;;6220983;28;20576;-67
2022/03/24 06:35:43;;;;;;;32.05;18.23;;;;;;;;;;6223470;28;20056;-70
2022/03/24 06:38:45;;;;;;;31.10;17.85;;;;;;;;;;6226295;28;20057;-70
2022/03/24 06:41:49;;;;;;;30.90;18.17;;;;;;;;;;6222628;28;20050;-70
2022/03/24 06:44:50;;;;;;;38.13;19.40;;;;;;;;;;6224938;28;20058;-69
2022/03/24 06:47:52;;;;;;;35.72;18.98;;;;;;;;;;6223784;28;20618;-69
2022/03/24 06:50:53;;;;;;;38.65;19.27;;;;;;;;;;6224978;28;20399;-70
2022/03/24 06:53:55;;;;;;;33.85;19.63;;;;;;;;;;6223280;28;20053;-70
2022/03/24 06:56:58;;;;;;;35.20;19.90;;;;;;;;;;6224189;28;20062;-70
2022/03/24 07:00:00;;;;;;;39.92;20.38;;;;;;;;;;6222813;28;20070;-71
2022/03/24 07:03:01;;;;;;;36.33;20.02;;;;;;;;;;6225034;28;20132;-70
2022/03/24 07:06:03;;;;;;;40.08;21.02;;;;;;;;;;6222858;28;20052;-70
2022/03/24 07:09:05;;;;;;;33.63;20.77;;;;;;;;;;6222357;28;20042;-70
2022/03/24 07:12:09;;;;;;;37.60;20.88;;;;;;;;;;6223287;28;20124;-71
2022/03/24 07:15:12;;;;;;;39.72;22.10;;;;;;;;;;6223141;28;20101;-71
2022/03/24 07:18:15;;;;;;;37.90;21.92;;;;;;;;;;6223249;28;20464;-71
2022/03/24 07:21:16;;;;;;;40.45;22.50;;;;;;;;;;6222115;28;20458;-70
2022/03/24 07:24:19;;;;;;;41.75;23.92;;;;;;;;;;6221743;28;20444;-69
2022/03/24 07:27:22;;;;;;;41.80;23.75;;;;;;;;;;6221364;28;20064;-71
2022/03/24 07:30:23;;;;;;;48.30;26.58;;;;;;;;;;6220249;28;20046;-70
2022/03/24 07:33:25;;;;;;;39.70;23.83;;;;;;;;;;6220115;28;20129;-70
2022/03/24 07:36:26;;;;;;;42.08;23.70;;;;;;;;;;6220526;28;20528;-70
2022/03/24 07:39:28;;;;;;;46.33;24.73;;;;;;;;;;6221458;28;20116;-72
2022/03/24 07:42:31;;;;;;;36.40;24.83;;;;;;;;;;6219871;28;20054;-71
2022/03/24 07:45:37;;;;;;;37.10;26.10;;;;;;;;;;6222314;28;20113;-69
2022/03/24 07:48:39;;;;;;;43.60;25.20;;;;;;;;;;6222615;28;20452;-70
2022/03/24 07:51:41;;;;;;;43.03;25.10;;;;;;;;;;6223290;28;20091;-70
2022/03/24 07:54:57;;;;;;;49.53;24.70;;;;;;;;;;6224618;28;20060;-71
2022/03/24 07:58:00;;;;;;;44.05;25.80;;;;;;;;;;6222141;28;20401;-71
2022/03/24 08:01:02;;;;;;;41.30;24.97;;;;;;;;;;6222291;28;20180;-69
2022/03/24 08:04:05;;;;;;;38.70;25.20;;;;;;;;;;6221792;28;20061;-70
2022/03/24 08:07:07;;;;;;;40.10;25.37;;;;;;;;;;6223862;28;20042;-73
2022/03/24 08:10:10;;;;;;;43.47;25.58;;;;;;;;;;6221843;28;20095;-72
2022/03/24 08:13:14;;;;;;;40.90;27.05;;;;;;;;;;6223139;28;20046;-71
2022/03/24 08:16:15;;;;;;;40.53;26.05;;;;;;;;;;6220159;28;20054;-71
2022/03/24 08:19:17;;;;;;;44.17;26.33;;;;;;;;;;6223692;28;20136;-71
2022/03/24 08:22:18;;;;;;;39.03;27.15;;;;;;;;;;6221643;28;20180;-71
2022/03/24 08:25:20;;;;;;;42.72;26.42;;;;;;;;;;6223243;28;20056;-71
2022/03/24 08:28:23;;;;;;;36.70;25.95;;;;;;;;;;6220724;28;20240;-71
2022/03/24 08:31:25;;;;;;;39.03;26.58;;;;;;;;;;6221786;28;20184;-71
2022/03/24 08:34:26;;;;;;;39.03;26.00;;;;;;;;;;6221185;28;20098;-71
2022/03/24 08:37:28;;;;;;;37.10;25.35;;;;;;;;;;6222001;28;20655;-69
2022/03/24 08:40:29;;;;;;;37.13;25.25;;;;;;;;;;6221717;28;20045;-70
2022/03/24 08:43:32;;;;;;;36.22;25.67;;;;;;;;;;6221241;28;20350;-69
2022/03/24 08:46:34;;;;;;;37.90;25.08;;;;;;;;;;6221046;28;20085;-69
2022/03/24 08:49:35;;;;;;;34.30;26.27;;;;;;;;;;6221308;28;20208;-69
2022/03/24 08:52:37;;;;;;;36.72;25.33;;;;;;;;;;6221195;28;20037;-68
2022/03/24 08:55:39;;;;;;;32.88;23.40;;;;;;;;;;6221230;28;20175;-70
2022/03/24 08:58:43;;;;;;;38.83;25.05;;;;;;;;;;6220556;28;20073;-70
2022/03/24 09:01:44;;;;;;;42.08;24.35;;;;;;;;;;6222541;28;20081;-70
2022/03/24 09:04:46;;;;;;;39.05;25.95;;;;;;;;;;6224088;28;20140;-70
2022/03/24 09:07:49;;;;;;;38.63;25.75;;;;;;;;;;6221218;28;20129;-70
2022/03/24 09:10:51;;;;;;;35.35;24.13;;;;;;;;;;6219368;28;20049;-70
2022/03/24 09:13:54;;;;;;;30.55;21.95;;;;;;;;;;6220872;28;20168;-70
2022/03/24 09:16:55;;;;;;;34.08;22.30;;;;;;;;;;6219431;28;20124;-70
2022/03/24 09:19:57;;;;;;;30.63;21.80;;;;;;;;;;6219509;28;20046;-69
2022/03/24 09:22:58;;;;;;;28.10;21.50;;;;;;;;;;6220726;28;20098;-70
2022/03/24 09:26:00;;;;;;;25.23;19.17;;;;;;;;;;6220953;28;20058;-69
2022/03/24 09:29:03;;;;;;;26.05;19.55;;;;;;;;;;6220301;28;20136;-69
2022/03/24 09:32:09;;;;;;;25.35;19.77;;;;;;;;;;6218960;28;20176;-70
2022/03/24 09:35:10;;;;;;;25.20;19.90;;;;;;;;;;6219371;28;20526;-69
2022/03/24 09:38:12;;;;;;;25.95;19.42;;;;;;;;;;6220380;28;20050;-70
2022/03/24 09:41:14;;;;;;;24.75;19.90;;;;;;;;;;6221286;28;20140;-69
2022/03/24 09:44:17;;;;;;;25.60;20.63;;;;;;;;;;6220104;28;20046;-70
2022/03/24 09:47:18;;;;;;;;;;;;;;;;;;6222193;28;20161;-69
2022/03/24 09:50:22;;;;;;;27.90;19.08;;;;;;;;;;6222113;28;19967;-69
2022/03/24 09:53:24;;;;;;;23.58;20.42;;;;;;;;;;6220991;28;20081;-70
2022/03/24 09:56:25;;;;;;;29.08;23.15;;;;;;;;;;6220207;28;20057;-70
2022/03/24 09:59:28;;;;;;;31.27;21.70;;;;;;;;;;6221197;28;20489;-70
2022/03/24 10:02:30;;;;;;;;;;;;;;;;;;6220898;28;20139;-70
2022/03/24 10:05:31;;;;;;;27.60;19.50;;;;;;;;;;6221111;28;19960;-69
2022/03/24 10:08:33;;;;;;;29.77;19.65;;;;;;;;;;6221215;28;20050;-69
2022/03/24 10:11:36;;;;;;;24.40;18.93;;;;;;;;;;6225692;28;20112;-69
2022/03/24 10:14:42;;;;;;;24.95;19.23;;;;;;;;;;6223910;28;20049;-69
2022/03/24 10:17:50;;;;;;;32.17;21.55;;;;;;;;;;6224387;28;20049;-69
2022/03/24 10:20:52;;;;;;;27.30;21.42;;;;;;;;;;6225760;28;20128;-71
2022/03/24 10:23:55;;;;;;;25.77;19.83;;;;;;;;;;6225137;28;20136;-69
2022/03/24 10:27:00;;;;;;;27.25;20.55;;;;;;;;;;6226211;28;20060;-72
2022/03/24 10:30:04;;;;;;;23.70;20.10;;;;;;;;;;6221989;28;20048;-69
2022/03/24 10:33:06;;;;;;;27.75;21.10;;;;;;;;;;6223850;28;20050;-70
2022/03/24 10:36:09;;;;;;;25.45;19.02;;;;;;;;;;6222765;28;20128;-69
2022/03/24 10:39:11;;;;;;;27.48;19.08;;;;;;;;;;6222715;28;20518;-72
2022/03/24 10:42:14;;;;;;;32.13;22.13;;;;;;;;;;6222882;28;20070;-70
2022/03/24 10:45:18;;;;;;;23.98;20.17;;;;;;;;;;6222105;28;20066;-71
2022/03/24 10:48:22;;;;;;;27.75;21.08;;;;;;;;;;6222763;28;20129;-70
2022/03/24 10:51:25;;;;;;;23.25;17.20;;;;;;;;;;6222614;28;20553;-70
2022/03/24 10:54:28;;;;;;;;;;;;;;;;;;6223329;28;20493;-70
2022/03/24 10:57:30;;;;;;;23.73;16.42;;;;;;;;;;6222874;28;19925;-70
2022/03/24 11:00:35;;;;;;;23.13;17.73;;;;;;;;;;6221096;28;20053;-70
2022/03/24 11:03:37;;;;;;;24.23;18.42;;;;;;;;;;6222676;28;20511;-71
2022/03/24 11:06:48;;;;;;;22.30;17.27;;;;;;;;;;6222109;28;20053;-70
2022/03/24 11:09:50;;;;;;;21.20;18.05;;;;;;;;;;6222196;28;20181;-71
2022/03/24 11:12:54;;;;;;;21.63;17.20;;;;;;;;;;6222288;28;20536;-69
2022/03/24 11:15:57;;;;;;;21.00;18.33;;;;;;;;;;6221185;28;20394;-70
2022/03/24 11:19:01;;;;;;;23.67;18.88;;;;;;;;;;6221597;28;20452;-70
2022/03/24 11:22:03;;;;;;;26.25;18.48;;;;;;;;;;6220823;28;20064;-71
2022/03/24 11:25:05;;;;;;;25.75;18.92;;;;;;;;;;6222183;28;20060;-72
2022/03/24 11:28:09;;;;;;;;;;;;;;;;;;6222279;28;20432;-71
2022/03/24 11:31:14;;;;;;;21.67;18.45;;;;;;;;;;6221869;28;20353;-72
2022/03/24 11:34:15;;;;;;;20.75;17.85;;;;;;;;;;6221396;28;20569;-70
2022/03/24 11:37:17;;;;;;;22.40;17.77;;;;;;;;;;6223290;28;20054;-70
2022/03/24 11:40:21;;;;;;;31.00;18.52;;;;;;;;;;6221961;28;20449;-72
2022/03/24 11:43:23;;;;;;;24.80;18.08;;;;;;;;;;6222070;28;20049;-72
2022/03/24 11:46:34;;;;;;;24.00;19.10;;;;;;;;;;6221022;28;20167;-70
2022/03/24 11:49:36;;;;;;;21.85;18.95;;;;;;;;;;6221646;28;20095;-71
2022/03/24 11:52:38;;;;;;;25.75;17.92;;;;;;;;;;6223269;28;20133;-70
2022/03/24 11:55:40;;;;;;;22.45;18.60;;;;;;;;;;6220340;28;20042;-68
2022/03/24 11:59:07;;;;;;;24.38;18.73;;;;;;;;;;6220509;28;20157;-69
2022/03/24 12:02:17;;;;;;;20.75;18.65;;;;;;;;;;6221018;28;20046;-69
2022/03/24 12:05:19;;;;;;;20.25;17.77;;;;;;;;;;6222022;28;20042;-69
2022/03/24 12:08:28;;;;;;;19.23;15.93;;;;;;;;;;6219513;28;20215;-70
2022/03/24 12:11:47;;;;;;;20.25;18.23;;;;;;;;;;6220489;28;20054;-71
2022/03/24 12:14:53;;;;;;;22.65;16.30;;;;;;;;;;6221424;28;20482;-71
2022/03/24 12:18:04;;;;;;;19.98;17.02;;;;;;;;;;6219582;28;20053;-71
2022/03/24 12:21:05;;;;;;;17.85;16.10;;;;;;;;;;6220771;28;20061;-70
2022/03/24 12:24:09;;;;;;;19.52;16.88;;;;;;;;;;6221096;28;20519;-70
2022/03/24 12:27:16;;;;;;;19.15;16.70;;;;;;;;;;6219480;28;20042;-71
2022/03/24 12:30:18;;;;;;;19.48;15.50;;;;;;;;;;6218965;28;20088;-71
2022/03/24 12:33:43;;;;;;;20.27;15.98;;;;;;;;;;6218530;28;20049;-70
2022/03/24 12:36:44;;;;;;;16.80;14.98;;;;;;;;;;6220987;28;20045;-72
2022/03/24 12:39:46;;;;;;;17.80;14.57;;;;;;;;;;6218372;28;20494;-69
2022/03/24 12:42:49;;;;;;;15.00;13.48;;;;;;;;;;6219602;28;20180;-73
2022/03/24 12:45:50;;;;;;;15.80;13.77;;;;;;;;;;6218960;28;20501;-74
2022/03/24 12:48:54;;;;;;;14.50;12.85;;;;;;;;;;6220407;28;20073;-71
2022/03/24 12:52:01;;;;;;;17.40;12.75;;;;;;;;;;6219309;28;20133;-72
2022/03/24 12:55:03;;;;;;;16.30;12.20;;;;;;;;;;6219402;28;20715;-72
2022/03/24 12:58:08;;;;;;;13.93;11.73;;;;;;;;;;6215784;28;20077;-73
2022/03/24 13:01:09;;;;;;;16.10;14.50;;;;;;;;;;6220539;28;20050;-73
2022/03/24 13:04:14;;;;;;;19.00;12.68;;;;;;;;;;6220339;28;20068;-69
2022/03/24 13:07:19;;;;;;;15.75;12.88;;;;;;;;;;6220377;28;20443;-71
2022/03/24 13:10:21;;;;;;;15.65;14.07;;;;;;;;;;6219950;28;20046;-72
2022/03/24 13:13:23;;;;;;;;;;;;;;;;;;6219582;28;20690;-75
2022/03/24 13:16:25;;;;;;;17.90;12.67;;;;;;;;;;6220786;28;19925;-75
2022/03/24 13:19:28;;;;;;;15.23;12.85;;;;;;;;;;6223859;28;20077;-72
2022/03/24 13:22:30;;;;;;;14.82;13.32;;;;;;;;;;6220625;28;20054;-76
2022/03/24 13:25:33;;;;;;;16.75;13.48;;;;;;;;;;6221007;28;20533;-73
2022/03/24 13:28:36;;;;;;;16.88;12.68;;;;;;;;;;6218878;28;20045;-73
2022/03/24 13:31:37;;;;;;;12.57;10.48;;;;;;;;;;6220635;28;20088;-73
2022/03/24 13:34:46;;;;;;;12.13;10.90;;;;;;;;;;6218003;28;20107;-71
2022/03/24 13:37:49;;;;;;;13.77;11.18;;;;;;;;;;6220091;28;20055;-70
2022/03/24 13:40:54;;;;;;;14.10;10.90;;;;;;;;;;6221002;28;20425;-70
2022/03/24 13:43:56;;;;;;;15.32;11.05;;;;;;;;;;6220016;28;20062;-73
2022/03/24 13:46:57;;;;;;;12.27;11.07;;;;;;;;;;6226609;28;20087;-74
2022/03/24 13:50:02;;;;;;;12.73;10.98;;;;;;;;;;6216619;28;20196;-72
2022/03/24 13:53:13;;;;;;;14.15;11.52;;;;;;;;;;6224997;28;20443;-72
2022/03/24 13:56:16;;;;;;;17.65;12.98;;;;;;;;;;6225908;28;20548;-73
2022/03/24 13:59:25;;;;;;;20.10;13.25;;;;;;;;;;6224071;28;20359;-73
2022/03/24 14:02:28;;;;;;;13.07;11.77;;;;;;;;;;6223141;28;20188;-71
2022/03/24 14:05:47;;;;;;;14.10;11.57;;;;;;;;;;6224861;28;20826;-73
2022/03/24 14:08:50;;;;;;;13.93;10.90;;;;;;;;;;6223641;28;20129;-72
2022/03/24 14:12:03;;;;;;;11.88;10.68;;;;;;;;;;6225994;28;20045;-72
2022/03/24 14:15:06;;;;;;;11.05;9.95;;;;;;;;;;6223857;28;20127;-73
2022/03/24 14:18:21;;;;;;;23.25;19.15;;;;;;;;;;6224543;28;20409;-74
2022/03/24 14:21:24;;;;;;;20.08;15.02;;;;;;;;;;6227288;28;20057;-70
2022/03/24 14:24:34;;;;;;;12.25;9.48;;;;;;;;;;6224504;28;20069;-72
2022/03/24 14:27:35;;;;;;;10.55;8.45;;;;;;;;;;6226416;28;20136;-74
2022/03/24 14:30:37;;;;;;;9.43;8.30;;;;;;;;;;6222376;28;20133;-73
2022/03/24 14:33:45;;;;;;;10.23;8.18;;;;;;;;;;6223371;28;20460;-72
2022/03/24 14:36:50;;;;;;;13.18;8.23;;;;;;;;;;6221237;28;20184;-73
2022/03/24 14:39:53;;;;;;;10.80;7.90;;;;;;;;;;6221280;28;20049;-72
2022/03/24 14:42:55;;;;;;;8.10;7.25;;;;;;;;;;6223908;28;20504;-74
2022/03/24 14:45:56;;;;;;;10.75;7.65;;;;;;;;;;6223112;28;20115;-74
2022/03/24 14:48:59;;;;;;;10.93;7.15;;;;;;;;;;6224980;28;20169;-73
2022/03/24 14:52:01;;;;;;;10.70;7.40;;;;;;;;;;6223854;28;20127;-73
2022/03/24 14:55:03;;;;;;;8.63;7.13;;;;;;;;;;6223730;28;20132;-68
2022/03/24 14:58:05;;;;;;;10.00;6.85;;;;;;;;;;6223156;28;20091;-71
2022/03/24 15:01:07;;;;;;;7.93;6.63;;;;;;;;;;6223732;28;20053;-72
2022/03/24 15:04:08;;;;;;;11.10;7.10;;;;;;;;;;6222515;28;20411;-70
2022/03/24 15:07:11;;;;;;;9.73;5.97;;;;;;;;;;6222540;28;20420;-70
2022/03/24 15:10:13;;;;;;;7.90;6.68;;;;;;;;;;6222911;28;20120;-69
2022/03/24 15:13:16;;;;;;;;;;;;;;;;;;6221585;28;20183;-71
2022/03/24 15:16:17;;;;;;;7.50;5.47;;;;;;;;;;6221487;28;19980;-69
2022/03/24 15:19:18;;;;;;;11.50;5.35;;;;;;;;;;6221701;28;20103;-74
2022/03/24 15:22:21;;;;;;;11.40;5.70;;;;;;;;;;6220556;28;20145;-73
2022/03/24 15:25:24;;;;;;;6.15;5.03;;;;;;;;;;6220941;28;20072;-73
2022/03/24 15:28:25;;;;;;;8.13;5.00;;;;;;;;;;6220676;28;20076;-71
2022/03/24 15:31:27;;;;;;;6.93;4.93;;;;;;;;;;6219874;28;20532;-71
2022/03/24 15:34:29;;;;;;;12.05;5.07;;;;;;;;;;6219411;28;20072;-69
2022/03/24 15:37:32;;;;;;;10.52;5.22;;;;;;;;;;6220416;28;20132;-70
2022/03/24 15:40:33;;;;;;;5.05;4.45;;;;;;;;;;6218612;28;20179;-72
2022/03/24 15:43:35;;;;;;;18.27;6.95;;;;;;;;;;6222279;28;20079;-71
2022/03/24 15:46:37;;;;;;;8.13;5.18;;;;;;;;;;6219913;28;20049;-71
2022/03/24 15:49:39;;;;;;;44.00;6.72;;;;;;;;;;6220511;28;20054;-70
2022/03/24 15:52:42;;;;;;;8.95;5.47;;;;;;;;;;6218656;28;20184;-70
2022/03/24 15:55:43;;;;;;;13.82;5.18;;;;;;;;;;6219823;28;20135;-70
2022/03/24 15:58:45;;;;;;;9.40;5.25;;;;;;;;;;6217869;28;20473;-70
2022/03/24 16:01:46;;;;;;;8.27;4.63;;;;;;;;;;6220621;28;20049;-69
2022/03/24 16:04:48;;;;;;;14.82;5.03;;;;;;;;;;6221784;28;20355;-69
2022/03/24 16:07:51;;;;;;;18.10;5.55;;;;;;;;;;6218386;28;20068;-70
2022/03/24 16:10:53;;;;;;;39.83;6.47;;;;;;;;;;6221026;28;20053;-71
2022/03/24 16:13:54;;;;;;;27.90;6.07;;;;;;;;;;6218502;28;20129;-70
2022/03/24 16:16:56;;;;;;;9.32;3.60;;;;;;;;;;6219742;28;20140;-71
2022/03/24 16:19:58;;;;;;;10.50;3.75;;;;;;;;;;6218689;28;20046;-71
2022/03/24 16:23:01;;;;;;;4.40;3.30;;;;;;;;;;6220872;28;20214;-71
2022/03/24 16:26:04;;;;;;;4.25;3.20;;;;;;;;;;6219517;28;20048;-71
2022/03/24 16:29:07;;;;;;;4.32;3.25;;;;;;;;;;6219864;28;20120;-71
2022/03/24 16:32:09;;;;;;;6.38;3.58;;;;;;;;;;6219062;28;20053;-71
2022/03/24 16:35:10;;;;;;;6.55;3.33;;;;;;;;;;6219142;28;20065;-71
2022/03/24 16:38:13;;;;;;;5.32;3.58;;;;;;;;;;6218773;28;20492;-71
2022/03/24 16:41:15;;;;;;;6.05;3.55;;;;;;;;;;6219006;28;20082;-71
2022/03/24 16:44:16;;;;;;;5.55;4.18;;;;;;;;;;6217722;28;20052;-71
2022/03/24 16:47:18;;;;;;;7.13;4.80;;;;;;;;;;6219620;28;20060;-72
2022/03/24 16:50:22;;;;;;;8.52;5.07;;;;;;;;;;6218529;28;20073;-71
2022/03/24 16:53:24;;;;;;;6.97;4.53;;;;;;;;;;6218896;28;20049;-71
2022/03/24 16:56:26;;;;;;;14.15;4.68;;;;;;;;;;6217632;28;20096;-71
2022/03/24 16:59:28;;;;;;;19.73;5.40;;;;;;;;;;6218579;28;20057;-70
2022/03/24 17:02:30;;;;;;;9.10;4.47;;;;;;;;;;6217679;28;20406;-70
2022/03/24 17:05:32;;;;;;;15.18;4.97;;;;;;;;;;6219660;28;20184;-70
2022/03/24 17:08:35;;;;;;;7.72;4.85;;;;;;;;;;6219020;28;20058;-70
2022/03/24 17:11:37;;;;;;;6.07;4.70;;;;;;;;;;6220322;28;20097;-70
2022/03/24 17:14:38;;;;;;;8.10;5.47;;;;;;;;;;6220433;28;20069;-71
2022/03/24 17:17:40;;;;;;;6.25;4.50;;;;;;;;;;6220689;28;20417;-70
2022/03/24 17:20:41;;;;;;;7.60;4.65;;;;;;;;;;6221060;28;20179;-71
2022/03/24 17:23:45;;;;;;;5.95;5.35;;;;;;;;;;6219327;28;20140;-69
2022/03/24 17:26:48;;;;;;;11.73;5.40;;;;;;;;;;6220901;28;20444;-70
2022/03/24 17:29:50;;;;;;;19.73;5.43;;;;;;;;;;6218572;28;20141;-70
2022/03/24 17:32:52;;;;;;;7.22;4.97;;;;;;;;;;6219427;28;20112;-73
2022/03/24 17:35:54;;;;;;;8.38;5.88;;;;;;;;;;6219899;28;20141;-73
2022/03/24 17:38:57;;;;;;;11.43;6.32;;;;;;;;;;6219348;28;20139;-73
2022/03/24 17:41:58;;;;;;;;;;;;;;;;;;6220263;28;20068;-73
2022/03/24 17:45:00;;;;;;;10.07;5.80;;;;;;;;;;6218464;28;20417;-69
2022/03/24 17:48:03;;;;;;;12.50;5.85;;;;;;;;;;6220063;28;20129;-69
2022/03/24 17:51:05;;;;;;;8.17;5.60;;;;;;;;;;6222272;28;20179;-70